createdAt,value
2018-06-13T00:00:13.495Z,15.56
2018-06-13T00:02:43.176Z,15.45
2018-06-13T00:05:13.080Z,15.47
2018-06-13T00:07:42.772Z,15.53
2018-06-13T00:10:14.174Z,15.52
2018-06-13T00:12:43.966Z,15.48
2018-06-13T00:15:14.531Z,15.53
2018-06-13T00:17:44.127Z,15.62
2018-06-13T00:20:14.189Z,15.61
2018-06-13T00:22:43.952Z,15.66
2018-06-13T00:25:15.102Z,15.62
2018-06-13T00:27:45.719Z,15.56
2018-06-13T00:30:15.475Z,15.54
2018-06-13T00:32:45.104Z,15.51
2018-06-13T00:35:14.746Z,15.43
2018-06-13T00:37:44.696Z,15.44
2018-06-13T00:40:14.325Z,15.48
2018-06-13T00:42:44.865Z,15.36
2018-06-13T00:45:14.607Z,15.39
2018-06-13T00:47:44.375Z,15.45
2018-06-13T00:50:14.055Z,15.35
2018-06-13T00:52:43.739Z,15.32
2018-06-13T00:55:13.621Z,15.39
2018-06-13T00:57:43.384Z,15.38
2018-06-13T01:00:13.076Z,15.41
2018-06-13T01:02:43.076Z,15.35
2018-06-13T01:05:13.105Z,15.30
2018-06-13T01:07:42.912Z,15.32
2018-06-13T01:10:13.214Z,15.35
2018-06-13T01:12:42.660Z,15.36
2018-06-13T01:15:12.363Z,15.35
2018-06-13T01:17:42.368Z,15.38
2018-06-13T01:20:13.108Z,15.41
2018-06-13T01:22:42.817Z,15.45
2018-06-13T01:25:12.627Z,15.51
2018-06-13T01:27:42.335Z,15.55
2018-06-13T01:30:12.042Z,15.40
2018-06-13T01:32:41.643Z,15.35
2018-06-13T01:35:11.234Z,15.23
2018-06-13T01:37:41.886Z,15.22
2018-06-13T01:40:11.605Z,15.17
2018-06-13T01:42:41.357Z,15.27
2018-06-13T01:45:10.982Z,15.21
2018-06-13T01:47:40.737Z,15.16
2018-06-13T01:50:11.097Z,15.22
2018-06-13T01:52:40.835Z,15.23
2018-06-13T01:55:10.557Z,15.19
2018-06-13T01:57:40.395Z,15.13
2018-06-13T02:00:10.206Z,15.01
2018-06-13T02:02:40.463Z,14.90
2018-06-13T02:05:12.062Z,14.88
2018-06-13T02:07:41.780Z,14.87
2018-06-13T02:10:11.621Z,14.87
2018-06-13T02:12:42.221Z,14.91
2018-06-13T02:15:12.004Z,14.96
2018-06-13T02:17:42.623Z,14.98
2018-06-13T02:20:12.453Z,14.98
2018-06-13T02:22:44.108Z,14.91
2018-06-13T02:25:13.759Z,14.91
2018-06-13T02:27:43.494Z,14.77
2018-06-13T02:30:13.243Z,14.70
2018-06-13T02:32:43.467Z,14.71
2018-06-13T02:35:13.823Z,14.66
2018-06-13T02:37:43.486Z,14.63
2018-06-13T02:40:13.193Z,14.62
2018-06-13T02:42:43.730Z,14.57
2018-06-13T02:45:13.943Z,14.63
2018-06-13T02:47:43.756Z,14.61
2018-06-13T02:50:13.841Z,14.51
2018-06-13T02:52:43.865Z,14.50
2018-06-13T02:55:13.531Z,14.57
2018-06-13T02:57:43.374Z,14.61
2018-06-13T03:00:14.000Z,14.60
2018-06-13T03:02:43.640Z,14.53
2018-06-13T03:05:15.002Z,14.46
2018-06-13T03:07:44.700Z,14.29
2018-06-13T03:10:14.348Z,14.29
2018-06-13T03:14:13.503Z,14.25
2018-06-13T03:16:43.188Z,14.27
2018-06-13T03:19:12.876Z,14.23
2018-06-13T03:21:42.635Z,14.25
2018-06-13T03:24:12.810Z,14.32
2018-06-13T03:26:42.958Z,14.36
2018-06-13T03:29:12.704Z,14.38
2018-06-13T03:31:42.535Z,14.45
2018-06-13T03:34:12.298Z,14.37
2018-06-13T03:36:43.022Z,14.36
2018-06-13T03:39:12.733Z,14.43
2018-06-13T03:41:42.535Z,14.53
2018-06-13T03:44:12.376Z,14.52
2018-06-13T03:46:42.805Z,14.48
2018-06-13T03:49:13.317Z,14.41
2018-06-13T03:51:43.688Z,14.32
2018-06-13T03:54:13.779Z,14.34
2018-06-13T03:56:43.494Z,14.39
2018-06-13T03:59:13.192Z,14.44
2018-06-13T04:01:42.909Z,14.46
2018-06-13T04:04:12.606Z,14.37
2018-06-13T04:06:42.615Z,14.33
2018-06-13T04:09:12.915Z,14.34
2018-06-13T04:11:42.727Z,14.33
2018-06-13T04:14:13.589Z,14.33
2018-06-13T04:16:44.422Z,14.35
2018-06-13T04:19:14.258Z,14.40
2018-06-13T04:21:44.347Z,14.46
2018-06-13T04:24:16.295Z,14.51
2018-06-13T04:26:46.739Z,14.60
2018-06-13T04:29:16.576Z,14.67
2018-06-13T04:31:47.576Z,14.67
2018-06-13T04:34:17.605Z,14.65
2018-06-13T04:36:50.686Z,14.70
2018-06-13T04:39:20.393Z,14.73
2018-06-13T04:41:51.820Z,14.65
2018-06-13T04:45:50.461Z,14.66
2018-06-13T04:48:20.547Z,14.70
2018-06-13T04:50:50.981Z,14.72
2018-06-13T04:53:20.855Z,14.68
2018-06-13T04:55:51.520Z,14.69
2018-06-13T04:58:24.210Z,14.79
2018-06-13T05:00:54.828Z,14.79
2018-06-13T05:03:24.882Z,14.76
2018-06-13T05:05:55.453Z,14.71
2018-06-13T05:08:26.856Z,14.60
2018-06-13T05:10:57.708Z,14.57
2018-06-13T05:13:28.603Z,14.61
2018-06-13T05:15:57.925Z,14.68
2018-06-13T05:18:27.946Z,14.81
2018-06-13T05:20:59.189Z,14.83
2018-06-13T05:23:31.685Z,14.90
2018-06-13T05:26:01.574Z,14.89
2018-06-13T05:28:31.520Z,14.84
2018-06-13T05:31:01.136Z,14.78
2018-06-13T05:33:31.711Z,14.79
2018-06-13T05:36:02.205Z,14.70
2018-06-13T05:38:31.928Z,14.68
2018-06-13T05:41:01.685Z,14.64
2018-06-13T05:43:31.301Z,14.69
2018-06-13T05:46:01.759Z,14.83
2018-06-13T05:48:31.530Z,15.01
2018-06-13T05:51:02.265Z,15.13
2018-06-13T05:53:33.646Z,15.17
2018-06-13T05:56:04.423Z,15.12
2018-06-13T05:58:34.734Z,15.12
2018-06-13T06:01:04.589Z,15.07
2018-06-13T06:03:35.312Z,15.10
2018-06-13T06:06:05.952Z,15.02
2018-06-13T06:08:36.277Z,15.08
2018-06-13T06:11:05.973Z,15.12
2018-06-13T06:13:35.653Z,15.14
2018-06-13T06:16:05.724Z,15.27
2018-06-13T06:18:36.499Z,15.39
2018-06-13T06:21:06.682Z,15.43
2018-06-13T06:23:37.207Z,15.39
2018-06-13T06:26:07.665Z,15.27
2018-06-13T06:28:38.624Z,15.25
2018-06-13T06:31:09.827Z,15.33
2018-06-13T06:33:40.157Z,15.45
2018-06-13T06:36:09.953Z,15.40
2018-06-13T06:38:39.540Z,15.36
2018-06-13T06:41:09.650Z,15.30
2018-06-13T06:43:39.313Z,15.37
2018-06-13T06:46:08.961Z,15.42
2018-06-13T06:48:38.608Z,15.56
2018-06-13T06:51:08.527Z,15.57
2018-06-13T06:53:38.171Z,15.54
2018-06-13T06:56:07.911Z,15.55
2018-06-13T06:58:37.772Z,15.71
2018-06-13T07:01:08.582Z,15.75
2018-06-13T07:03:38.740Z,15.74
2018-06-13T07:06:08.987Z,15.64
2018-06-13T07:08:39.332Z,15.62
2018-06-13T07:11:09.646Z,15.67
2018-06-13T07:13:40.803Z,15.75
2018-06-13T07:16:10.632Z,15.77
2018-06-13T07:18:40.353Z,15.83
2018-06-13T07:21:10.708Z,15.77
2018-06-13T07:23:40.416Z,15.75
2018-06-13T07:26:10.086Z,15.73
2018-06-13T07:28:41.094Z,15.84
2018-06-13T07:31:10.760Z,15.83
2018-06-13T07:33:40.464Z,15.90
2018-06-13T07:36:11.088Z,16.03
2018-06-13T07:38:41.244Z,16.12
2018-06-13T07:41:11.157Z,16.21
2018-06-13T07:43:41.258Z,16.28
2018-06-13T07:46:12.180Z,16.32
2018-06-13T07:48:41.937Z,16.23
2018-06-13T07:51:11.730Z,16.30
2018-06-13T07:53:42.077Z,16.32
2018-06-13T07:56:11.989Z,16.31
2018-06-13T07:58:42.600Z,16.32
2018-06-13T08:01:12.373Z,16.24
2018-06-13T08:03:42.038Z,16.05
2018-06-13T08:06:13.182Z,15.95
2018-06-13T08:13:20.530Z,15.95
2018-06-13T08:15:50.606Z,16.02
2018-06-13T08:18:20.482Z,16.09
2018-06-13T08:20:50.192Z,16.04
2018-06-13T08:23:20.237Z,16.02
2018-06-13T08:25:51.348Z,16.18
2018-06-13T08:28:21.729Z,16.29
2018-06-13T08:30:51.672Z,16.37
2018-06-13T08:33:23.333Z,16.53
2018-06-13T08:35:54.611Z,16.50
2018-06-13T08:38:24.906Z,16.57
2018-06-13T08:40:59.449Z,16.63
2018-06-13T08:43:30.705Z,16.78
2018-06-13T08:46:00.617Z,16.69
2018-06-13T08:48:30.536Z,16.59
2018-06-13T08:51:00.505Z,16.75
2018-06-13T08:53:30.464Z,16.80
2018-06-13T08:56:00.423Z,16.90
2018-06-13T08:58:31.185Z,17.02
2018-06-13T09:01:01.014Z,16.94
2018-06-13T09:03:30.855Z,16.86
2018-06-13T09:06:00.622Z,16.87
2018-06-13T09:08:30.516Z,16.82
2018-06-13T09:11:00.510Z,16.76
2018-06-13T09:13:30.356Z,16.72
2018-06-13T09:16:00.197Z,16.62
2018-06-13T09:18:36.171Z,16.48
2018-06-13T09:21:06.478Z,16.41
2018-06-13T09:23:36.063Z,16.30
2018-06-13T09:26:05.765Z,16.11
2018-06-13T09:28:36.135Z,16.01
2018-06-13T09:31:07.979Z,15.99
2018-06-13T09:33:39.852Z,15.90
2018-06-13T09:36:11.580Z,15.90
2018-06-13T09:38:41.325Z,15.83
2018-06-13T09:41:12.406Z,15.82
2018-06-13T09:43:43.004Z,15.80
2018-06-13T09:46:12.985Z,15.80
2018-06-13T09:48:42.981Z,15.70
2018-06-13T09:51:13.092Z,15.61
2018-06-13T09:53:42.776Z,15.58
2018-06-13T09:56:13.043Z,15.72
2018-06-13T09:58:50.646Z,15.75
2018-06-13T10:01:25.515Z,16.01
2018-06-13T10:03:55.299Z,15.94
2018-06-13T10:06:25.055Z,16.05
2018-06-13T10:08:55.033Z,16.28
2018-06-13T10:11:26.885Z,16.35
2018-06-13T10:13:56.525Z,16.24
2018-06-13T10:16:26.626Z,16.28
2018-06-13T10:18:56.325Z,16.34
2018-06-13T10:21:26.065Z,16.40
2018-06-13T10:23:56.033Z,16.38
2018-06-13T10:26:26.276Z,16.27
2018-06-13T10:28:55.882Z,16.19
2018-06-13T10:31:25.767Z,16.19
2018-06-13T10:33:55.461Z,16.24
2018-06-13T10:36:29.323Z,16.35
2018-06-13T10:39:00.032Z,16.50
2018-06-13T10:41:29.864Z,16.57
2018-06-13T10:43:59.656Z,16.70
2018-06-13T10:46:30.052Z,16.68
2018-06-13T10:49:00.201Z,16.70
2018-06-13T10:51:31.055Z,16.77
2018-06-13T10:54:02.288Z,16.73
2018-06-13T10:56:32.542Z,16.71
2018-06-13T10:59:03.076Z,16.79
2018-06-13T11:01:32.963Z,16.81
2018-06-13T11:04:03.892Z,16.87
2018-06-13T11:06:34.723Z,16.86
2018-06-13T11:09:07.315Z,16.85
2018-06-13T11:11:37.367Z,16.92
2018-06-13T11:14:07.249Z,17.00
2018-06-13T11:16:40.168Z,17.02
2018-06-13T11:19:09.963Z,17.09
2018-06-13T11:21:40.357Z,17.16
2018-06-13T11:24:10.846Z,17.22
2018-06-13T11:26:40.750Z,17.39
2018-06-13T11:29:11.669Z,17.41
2018-06-13T11:31:41.616Z,17.51
2018-06-13T11:34:11.411Z,17.63
2018-06-13T11:36:41.964Z,17.70
2018-06-13T11:39:12.181Z,17.79
2018-06-13T11:41:43.302Z,17.86
2018-06-13T11:44:13.297Z,17.89
2018-06-13T11:46:43.112Z,17.81
2018-06-13T11:49:12.843Z,17.82
2018-06-13T11:51:43.336Z,17.84
2018-06-13T11:54:14.055Z,17.85
2018-06-13T11:56:44.486Z,17.87
2018-06-13T11:59:14.192Z,17.95
2018-06-13T12:01:44.710Z,17.91
2018-06-13T12:04:14.572Z,17.85
2018-06-13T12:06:44.491Z,17.78
2018-06-13T12:09:15.204Z,17.87
2018-06-13T12:11:45.024Z,17.79
2018-06-13T12:14:14.934Z,17.84
2018-06-13T12:16:45.437Z,17.92
2018-06-13T12:19:15.095Z,18.11
2018-06-13T12:21:45.248Z,18.21
2018-06-13T12:24:15.060Z,18.18
2018-06-13T12:26:45.408Z,18.27
2018-06-13T12:29:15.701Z,18.30
2018-06-13T12:31:45.453Z,18.40
2018-06-13T12:34:15.189Z,18.56
2018-06-13T12:36:44.795Z,18.70
2018-06-13T12:39:14.977Z,18.74
2018-06-13T12:41:45.063Z,18.78
2018-06-13T12:44:14.673Z,19.01
2018-06-13T12:46:45.208Z,18.93
2018-06-13T12:49:14.932Z,18.97
2018-06-13T12:51:44.737Z,18.93
2018-06-13T12:54:14.521Z,18.70
2018-06-13T12:56:44.278Z,18.49
2018-06-13T12:59:14.155Z,18.36
2018-06-13T13:01:43.868Z,18.44
2018-06-13T13:04:13.552Z,18.35
2018-06-13T13:06:43.172Z,18.43
2018-06-13T13:09:14.026Z,18.56
2018-06-13T13:11:48.783Z,18.65
2018-06-13T13:14:18.809Z,18.72
2018-06-13T13:16:52.444Z,18.79
2018-06-13T13:19:25.216Z,18.99
2018-06-13T13:21:57.480Z,19.14
2018-06-13T13:24:28.709Z,19.18
2018-06-13T13:27:02.805Z,19.27
2018-06-13T13:29:35.282Z,18.92
2018-06-13T13:32:04.965Z,18.86
2018-06-13T13:34:37.160Z,18.77
2018-06-13T13:37:07.037Z,18.69
2018-06-13T13:39:39.509Z,18.48
2018-06-13T13:42:11.052Z,18.36
2018-06-13T13:44:42.280Z,18.17
2018-06-13T13:47:12.009Z,18.03
2018-06-13T13:49:42.350Z,18.00
2018-06-13T13:52:13.108Z,18.05
2018-06-13T13:54:44.698Z,18.08
2018-06-13T13:57:14.984Z,18.03
2018-06-13T13:59:48.027Z,17.97
2018-06-13T14:02:19.441Z,17.98
2018-06-13T14:04:50.315Z,18.02
2018-06-13T14:07:22.392Z,18.08
2018-06-13T14:09:52.554Z,18.02
2018-06-13T14:12:22.306Z,17.99
2018-06-13T14:14:52.839Z,17.99
2018-06-13T14:17:23.410Z,17.85
2018-06-13T14:19:54.680Z,17.66
2018-06-13T14:22:24.565Z,17.56
2018-06-13T14:24:55.527Z,17.61
2018-06-13T14:27:25.277Z,17.62
2018-06-13T14:29:56.747Z,17.66
2018-06-13T14:32:28.389Z,17.64
2018-06-13T14:35:00.266Z,17.64
2018-06-13T14:37:34.661Z,17.65
2018-06-13T14:40:06.568Z,17.75
2018-06-13T14:42:37.003Z,17.80
2018-06-13T14:45:08.119Z,17.85
2018-06-13T14:47:39.903Z,17.83
2018-06-13T14:50:16.063Z,17.82
2018-06-13T14:52:46.872Z,17.82
2018-06-13T14:55:17.876Z,17.94
2018-06-13T14:57:50.349Z,17.96
2018-06-13T15:00:22.815Z,18.00
2018-06-13T15:02:56.168Z,18.03
2018-06-13T15:05:26.809Z,18.18
2018-06-13T15:07:59.479Z,18.31
2018-06-13T15:10:30.731Z,18.44
2018-06-13T15:13:02.292Z,18.51
2018-06-13T15:15:34.718Z,18.40
2018-06-13T15:18:10.495Z,18.34
2018-06-13T15:20:43.134Z,18.32
2018-06-13T15:23:14.948Z,18.29
2018-06-13T15:25:44.990Z,18.28
2018-06-13T15:28:14.922Z,18.21
2018-06-13T15:30:44.677Z,18.08
2018-06-13T15:33:14.763Z,17.95
2018-06-13T15:35:46.106Z,17.87
2018-06-13T15:38:17.879Z,17.87
2018-06-13T15:40:49.511Z,17.81
2018-06-13T15:43:20.396Z,17.72
2018-06-13T15:45:51.467Z,17.73
2018-06-13T15:48:25.857Z,17.72
2018-06-13T15:50:58.619Z,17.85
2018-06-13T15:53:29.874Z,17.88
2018-06-13T15:56:00.534Z,17.99
2018-06-13T15:58:31.592Z,18.14
2018-06-13T16:01:01.649Z,18.43
2018-06-13T16:03:32.288Z,18.51
2018-06-13T16:06:03.077Z,18.57
2018-06-13T16:08:35.259Z,18.61
2018-06-13T16:11:06.147Z,18.59
2018-06-13T16:13:36.960Z,18.39
2018-06-13T16:16:09.514Z,18.40
2018-06-13T16:18:39.737Z,18.49
2018-06-13T16:21:10.156Z,18.59
2018-06-13T16:23:40.600Z,18.55
2018-06-13T16:26:11.064Z,18.49
2018-06-13T16:28:43.549Z,18.39
2018-06-13T16:31:14.300Z,18.33
2018-06-13T16:33:44.852Z,18.27
2018-06-13T16:36:15.414Z,18.32
2018-06-13T16:38:45.786Z,18.39
2018-06-13T16:41:16.510Z,18.45
2018-06-13T16:43:47.364Z,18.50
2018-06-13T16:46:18.670Z,18.62
2018-06-13T16:48:52.975Z,18.86
2018-06-13T16:51:39.603Z,18.93
2018-06-13T16:54:17.528Z,18.74
2018-06-13T16:56:48.271Z,18.65
2018-06-13T16:59:18.076Z,18.68
2018-06-13T17:01:51.542Z,18.63
2018-06-13T17:04:26.284Z,18.60
2018-06-13T17:06:56.648Z,18.47
2018-06-13T17:09:27.755Z,18.33
2018-06-13T17:11:57.804Z,18.44
2018-06-13T17:14:27.596Z,18.73
2018-06-13T17:16:59.193Z,18.89
2018-06-13T17:19:29.114Z,18.88
2018-06-13T17:21:59.607Z,18.81
2018-06-13T17:24:30.570Z,18.64
2018-06-13T17:27:00.699Z,18.55
2018-06-13T17:29:31.164Z,18.58
2018-06-13T17:32:00.912Z,18.61
2018-06-13T17:34:30.660Z,18.61
2018-06-13T17:37:00.324Z,18.49
2018-06-13T17:39:31.086Z,18.44
2018-06-13T17:42:00.839Z,18.40
2018-06-13T17:44:31.204Z,18.36
2018-06-13T17:47:00.873Z,18.34
2018-06-13T17:49:32.512Z,18.28
2018-06-13T17:52:02.263Z,18.35
2018-06-13T17:54:32.060Z,18.36
2018-06-13T17:57:01.844Z,18.35
2018-06-13T17:59:32.171Z,18.37
2018-06-13T18:02:01.973Z,18.24
2018-06-13T18:04:32.339Z,18.18
2018-06-13T18:07:05.366Z,18.14
2018-06-13T18:09:35.489Z,18.12
2018-06-13T18:12:05.275Z,18.04
2018-06-13T18:14:34.984Z,18.08
2018-06-13T18:17:04.888Z,18.13
2018-06-13T18:19:34.765Z,18.03
2018-06-13T18:22:04.573Z,18.01
2018-06-13T18:24:34.817Z,17.93
2018-06-13T18:27:04.801Z,17.89
2018-06-13T18:29:35.855Z,17.86
2018-06-13T18:32:05.616Z,17.85
2018-06-13T18:34:35.410Z,17.85
2018-06-13T18:37:05.327Z,17.84
2018-06-13T18:39:35.864Z,17.78
2018-06-13T18:42:06.351Z,17.78
2018-06-13T18:44:36.235Z,17.79
2018-06-13T18:47:06.089Z,17.79
2018-06-13T18:49:36.085Z,17.73
2018-06-13T18:52:06.464Z,17.70
2018-06-13T18:54:36.306Z,17.72
2018-06-13T18:57:06.173Z,17.71
2018-06-13T18:59:36.203Z,17.65
2018-06-13T19:02:06.575Z,17.64
2018-06-13T19:04:36.316Z,17.63
2018-06-13T19:07:06.242Z,17.62
2018-06-13T19:09:36.499Z,17.63
2018-06-13T19:12:06.193Z,17.55
2018-06-13T19:14:36.070Z,17.49
2018-06-13T19:17:05.946Z,17.48
2018-06-13T19:19:37.734Z,17.44
2018-06-13T19:22:07.944Z,17.45
2018-06-13T19:24:38.647Z,17.43
2018-06-13T19:27:09.422Z,17.45
2018-06-13T19:29:39.353Z,17.44
2018-06-13T19:32:09.215Z,17.42
2018-06-13T19:34:39.008Z,17.40
2018-06-13T19:37:08.954Z,17.40
2018-06-13T19:39:38.824Z,17.35
2018-06-13T19:42:08.544Z,17.35
2018-06-13T19:44:38.597Z,17.35
2018-06-13T19:48:15.312Z,17.32
2018-06-13T19:50:45.180Z,17.29
2018-06-13T19:53:21.076Z,17.30
2018-06-13T19:55:56.562Z,17.31
2018-06-13T19:58:26.914Z,17.30
2018-06-13T20:00:59.740Z,17.35
2018-06-13T20:06:11.013Z,17.30
2018-06-13T20:08:40.751Z,17.31
2018-06-13T20:11:10.753Z,17.32
2018-06-13T20:13:45.534Z,17.28
2018-06-13T20:16:27.379Z,17.25
2018-06-13T20:20:06.053Z,17.25
2018-06-13T20:22:35.901Z,17.25
2018-06-13T20:25:11.121Z,17.27
2018-06-13T20:27:45.957Z,17.28
2018-06-13T20:30:21.181Z,17.29
2018-06-13T20:32:52.621Z,17.25
2018-06-13T20:35:23.521Z,17.27
2018-06-13T20:37:53.426Z,17.23
2018-06-13T20:40:23.281Z,17.27
2018-06-13T20:42:53.054Z,17.25
2018-06-13T20:45:22.709Z,17.26
2018-06-13T20:47:53.520Z,17.29
2018-06-13T20:50:23.468Z,17.25
2018-06-13T20:52:53.354Z,17.21
2018-06-13T20:55:23.197Z,17.14
2018-06-13T20:57:53.271Z,17.13
2018-06-13T21:00:23.791Z,17.08
2018-06-13T21:02:53.527Z,17.04
2018-06-13T21:05:23.257Z,16.97
2018-06-13T21:07:53.295Z,16.98
2018-06-13T21:10:23.067Z,16.91
2018-06-13T21:12:57.477Z,16.80
2018-06-13T21:15:27.297Z,16.71
2018-06-13T21:17:57.027Z,16.66
2018-06-13T21:20:28.111Z,16.56
2018-06-13T21:22:57.882Z,16.51
2018-06-13T21:25:27.613Z,16.49
2018-06-13T21:27:57.093Z,16.44
2018-06-13T21:30:26.805Z,16.39
2018-06-13T21:32:56.574Z,16.40
2018-06-13T21:35:26.199Z,16.40
2018-06-13T21:37:55.923Z,16.39
2018-06-13T21:40:25.683Z,16.39
2018-06-13T21:42:55.422Z,16.29
2018-06-13T21:45:25.232Z,16.30
2018-06-13T21:47:54.917Z,16.28
2018-06-13T21:50:24.685Z,16.18
2018-06-13T21:52:54.442Z,16.09
2018-06-13T21:55:24.219Z,16.07
2018-06-13T21:57:54.557Z,15.99
2018-06-13T22:00:24.521Z,15.97
2018-06-13T22:02:54.726Z,15.95
2018-06-13T22:05:24.470Z,16.00
2018-06-13T22:07:57.964Z,15.94
2018-06-13T22:10:27.782Z,15.90
2018-06-13T22:12:57.513Z,15.91
2018-06-13T22:15:27.610Z,15.91
2018-06-13T22:17:58.871Z,15.85
2018-06-13T22:20:29.072Z,15.82
2018-06-13T22:22:59.331Z,15.77
2018-06-13T22:25:29.045Z,15.80
2018-06-13T22:27:58.844Z,15.78
2018-06-13T22:30:28.622Z,15.68
2018-06-13T22:32:58.561Z,15.63
2018-06-13T22:35:28.487Z,15.65
2018-06-13T22:37:58.600Z,15.66
2018-06-13T22:40:28.310Z,15.61
2018-06-13T22:42:58.038Z,15.54
2018-06-13T22:45:27.860Z,15.46
2018-06-13T22:47:57.584Z,15.40
2018-06-13T22:50:27.298Z,15.38
2018-06-13T22:52:57.353Z,15.34
2018-06-13T22:55:27.112Z,15.32
2018-06-13T22:57:56.947Z,15.37
2018-06-13T23:00:44.012Z,15.35
2018-06-13T23:03:13.726Z,15.40
2018-06-13T23:05:43.467Z,15.43
2018-06-13T23:08:13.241Z,15.41
2018-06-13T23:10:43.016Z,15.34
2018-06-13T23:13:12.775Z,15.31
2018-06-13T23:15:42.530Z,15.25
2018-06-13T23:18:12.242Z,15.20
2018-06-13T23:20:41.972Z,15.21
2018-06-13T23:23:11.661Z,15.14
2018-06-13T23:25:41.319Z,15.08
2018-06-13T23:28:10.995Z,15.03
2018-06-13T23:30:40.825Z,15.02
2018-06-13T23:33:10.587Z,14.89
2018-06-13T23:35:40.442Z,14.86
2018-06-13T23:38:10.230Z,14.73
2018-06-13T23:40:39.930Z,14.65
2018-06-13T23:43:09.561Z,14.67
2018-06-13T23:45:39.465Z,14.70
2018-06-13T23:48:09.330Z,14.67
2018-06-13T23:50:39.008Z,14.65
2018-06-13T23:53:08.746Z,14.64
2018-06-13T23:55:38.739Z,14.58
2018-06-13T23:58:09.392Z,14.55
